BGA113J LFBO-EDDW
Flight info
| Callsign | BGA113J |
|---|---|
| Flight time | N/A |
| Altitude | 40000 |
| Route | MEN7A MEN DCT NINUN DCT LATAM DCT ETREK DCT LTP/N0425F340 DCT SOPLO DCT OMASI DCT KINNI DCT SOSAL DCT KORED DCT BERSU DCT DITON/N0441F390 DCT LOKTA DCT TEDGO DCT HAREM DCT LOHRE DCT ELNAT/N0447F400 P605 NORTA Z595 NIE Z88 VERED VERED3P |
| Aircraft | A332/H-SDE3GHIJ2J3J5M1RVWXY/LB2D1 |
Departure
| Time | N/A |
|---|---|
| Airport | Toulouse-Blagnac Airport (LFBO) |
Arrival
| Time | 2026-05-04 09:43 |
|---|---|
| Airport | Bremen Airport (EDDW) |
| Time | Latitude | Longitude | Altitude | Speed | Heading |
|---|---|---|---|---|---|
| 2026-05-04 08:08 | 45.06964 | 4.33100 | 40056 ft | 421 kts | 63° |
| 2026-05-04 08:08 | 45.08366 | 4.36732 | 40048 ft | 421 kts | 63° |
| 2026-05-04 08:11 | 45.20941 | 4.69520 | 40047 ft | 422 kts | 63° |
| 2026-05-04 08:11 | 45.25123 | 4.80511 | 40045 ft | 422 kts | 63° |
| 2026-05-04 08:12 | 45.27903 | 4.87843 | 40045 ft | 422 kts | 63° |
| 2026-05-04 08:12 | 45.30680 | 4.95185 | 40043 ft | 422 kts | 63° |
| 2026-05-04 08:13 | 45.33455 | 5.02543 | 40049 ft | 423 kts | 63° |
| 2026-05-04 08:13 | 45.36229 | 5.09917 | 40046 ft | 423 kts | 63° |
| 2026-05-04 08:14 | 45.38988 | 5.17271 | 40046 ft | 424 kts | 63° |
| 2026-05-04 08:16 | 45.50810 | 5.46152 | 40037 ft | 421 kts | 44° |
| 2026-05-04 08:16 | 45.55058 | 5.51865 | 40046 ft | 418 kts | 40° |
| 2026-05-04 08:17 | 45.59410 | 5.57372 | 40049 ft | 418 kts | 40° |
| 2026-05-04 08:17 | 45.63769 | 5.62876 | 40050 ft | 418 kts | 40° |
| 2026-05-04 08:19 | 45.81033 | 5.85023 | 40048 ft | 417 kts | 40° |
| 2026-05-04 08:20 | 45.85355 | 5.90591 | 40049 ft | 417 kts | 40° |
| 2026-05-04 08:20 | 45.89629 | 5.96109 | 40047 ft | 415 kts | 40° |
| 2026-05-04 08:21 | 45.93920 | 6.01663 | 40046 ft | 415 kts | 40° |
| 2026-05-04 08:21 | 45.98207 | 6.07224 | 40049 ft | 415 kts | 40° |
| 2026-05-04 08:22 | 46.02494 | 6.12797 | 40054 ft | 415 kts | 41° |
| 2026-05-04 08:24 | 46.19186 | 6.35718 | 40043 ft | 415 kts | 44° |
| 2026-05-04 08:24 | 46.23284 | 6.41590 | 40039 ft | 414 kts | 44° |
| 2026-05-04 08:25 | 46.27371 | 6.47433 | 40045 ft | 412 kts | 44° |
| 2026-05-04 08:25 | 46.31450 | 6.53269 | 40046 ft | 412 kts | 44° |
| 2026-05-04 08:27 | 46.47698 | 6.76655 | 40039 ft | 412 kts | 44° |
| 2026-05-04 08:28 | 46.51763 | 6.82539 | 40028 ft | 412 kts | 44° |
| 2026-05-04 08:28 | 46.55762 | 6.88493 | 40020 ft | 412 kts | 50° |
| 2026-05-04 08:29 | 46.59409 | 6.94835 | 40029 ft | 410 kts | 50° |
| 2026-05-04 08:31 | 46.73132 | 7.19656 | 40024 ft | 410 kts | 51° |
| 2026-05-04 08:33 | 46.87336 | 7.45551 | 40021 ft | 405 kts | 51° |
| 2026-05-04 08:35 | 47.01353 | 7.71396 | 40033 ft | 405 kts | 52° |
| 2026-05-04 08:35 | 47.04846 | 7.77872 | 40028 ft | 405 kts | 52° |
| 2026-05-04 08:37 | 47.16565 | 8.01076 | 40034 ft | 406 kts | 58° |
| 2026-05-04 08:38 | 47.19576 | 8.08119 | 40042 ft | 406 kts | 59° |
| 2026-05-04 08:38 | 47.22567 | 8.15182 | 40041 ft | 406 kts | 59° |
| 2026-05-04 08:40 | 47.34690 | 8.37694 | 40043 ft | 405 kts | 33° |
| 2026-05-04 08:40 | 47.37026 | 8.40025 | 40041 ft | 406 kts | 32° |
| 2026-05-04 08:41 | 47.41772 | 8.44560 | 40052 ft | 406 kts | 31° |
| 2026-05-04 08:41 | 47.46523 | 8.49085 | 40047 ft | 406 kts | 31° |
| 2026-05-04 08:42 | 47.51259 | 8.53655 | 40052 ft | 407 kts | 32° |
| 2026-05-04 08:42 | 47.55958 | 8.58225 | 40048 ft | 407 kts | 32° |
| 2026-05-04 08:43 | 47.60694 | 8.62850 | 40044 ft | 407 kts | 32° |
| 2026-05-04 08:43 | 47.65426 | 8.67478 | 40042 ft | 407 kts | 32° |
| 2026-05-04 08:44 | 47.70162 | 8.72120 | 40046 ft | 407 kts | 32° |
| 2026-05-04 08:46 | 47.89021 | 8.90702 | 40032 ft | 407 kts | 32° |
| 2026-05-04 08:46 | 47.93725 | 8.95363 | 40025 ft | 404 kts | 32° |
| 2026-05-04 08:47 | 47.98369 | 8.99975 | 40024 ft | 403 kts | 32° |
| 2026-05-04 08:47 | 48.03041 | 9.04624 | 40023 ft | 403 kts | 32° |
| 2026-05-04 08:48 | 48.07709 | 9.09280 | 40023 ft | 403 kts | 32° |
| 2026-05-04 08:48 | 48.12383 | 9.13951 | 40021 ft | 404 kts | 32° |
| 2026-05-04 08:49 | 48.17334 | 9.17841 | 40020 ft | 400 kts | 14° |
| 2026-05-04 08:50 | 48.33774 | 9.21186 | 40018 ft | 399 kts | 3° |
| 2026-05-04 08:50 | 48.36540 | 9.21623 | 40015 ft | 399 kts | 3° |
| 2026-05-04 08:51 | 48.42057 | 9.22532 | 40026 ft | 399 kts | 3° |
| 2026-05-04 08:51 | 48.47550 | 9.23463 | 40021 ft | 399 kts | 4° |
| 2026-05-04 08:52 | 48.53072 | 9.24405 | 40016 ft | 399 kts | 4° |
| 2026-05-04 08:52 | 48.58600 | 9.25348 | 40027 ft | 399 kts | 4° |
| 2026-05-04 08:54 | 48.80703 | 9.28783 | 40021 ft | 399 kts | 2° |
| 2026-05-04 08:55 | 48.86191 | 9.29623 | 40018 ft | 399 kts | 2° |
| 2026-05-04 08:55 | 48.91715 | 9.30473 | 40017 ft | 399 kts | 3° |
| 2026-05-04 09:01 | 49.49905 | 9.39540 | 40031 ft | 402 kts | 2° |
| 2026-05-04 09:01 | 49.55394 | 9.40406 | 40028 ft | 401 kts | 2° |
| 2026-05-04 09:02 | 49.60959 | 9.41286 | 40033 ft | 401 kts | 2° |
| 2026-05-04 09:02 | 49.66472 | 9.42162 | 40030 ft | 401 kts | 2° |
| 2026-05-04 09:03 | 49.72010 | 9.43045 | 40030 ft | 401 kts | 2° |
| 2026-05-04 09:03 | 49.77538 | 9.43928 | 40030 ft | 401 kts | 2° |
| 2026-05-04 09:04 | 49.83098 | 9.44818 | 40034 ft | 402 kts | 2° |
| 2026-05-04 09:04 | 49.88640 | 9.45707 | 40030 ft | 403 kts | 2° |
| 2026-05-04 09:05 | 49.94233 | 9.46606 | 40028 ft | 404 kts | 2° |
| 2026-05-04 09:05 | 49.99816 | 9.47507 | 40031 ft | 403 kts | 2° |
| 2026-05-04 09:06 | 50.05401 | 9.48410 | 40034 ft | 404 kts | 1° |
| 2026-05-04 09:08 | 50.27773 | 9.52340 | 40036 ft | 404 kts | 2° |
| 2026-05-04 09:08 | 50.33361 | 9.53328 | 40032 ft | 403 kts | 2° |
| 2026-05-04 09:09 | 50.38941 | 9.54319 | 40031 ft | 403 kts | 2° |
| 2026-05-04 09:09 | 50.44485 | 9.55306 | 40031 ft | 403 kts | 2° |
| 2026-05-04 09:10 | 50.50063 | 9.56302 | 40033 ft | 404 kts | 2° |
| 2026-05-04 09:10 | 50.55653 | 9.57303 | 40027 ft | 405 kts | 2° |
| 2026-05-04 09:11 | 50.61252 | 9.58307 | 40022 ft | 405 kts | 2° |
| 2026-05-04 09:11 | 50.66866 | 9.59318 | 40017 ft | 405 kts | 2° |
| 2026-05-04 09:12 | 50.72463 | 9.60327 | 40018 ft | 405 kts | 2° |
| 2026-05-04 09:14 | 50.94817 | 9.64382 | 40022 ft | 405 kts | 2° |
| 2026-05-04 09:14 | 51.00414 | 9.65402 | 39913 ft | 411 kts | 2° |
| 2026-05-04 09:14 | 51.03282 | 9.65922 | 39679 ft | 416 kts | 2° |
| 2026-05-04 09:15 | 51.06163 | 9.66447 | 39455 ft | 416 kts | 2° |
| 2026-05-04 09:15 | 51.09023 | 9.66974 | 39222 ft | 414 kts | 2° |
| 2026-05-04 09:15 | 51.11880 | 9.67502 | 38987 ft | 412 kts | 1° |
| 2026-05-04 09:15 | 51.14723 | 9.68028 | 38768 ft | 410 kts | 1° |
| 2026-05-04 09:17 | 51.36878 | 9.71749 | 36469 ft | 392 kts | 0° |
| 2026-05-04 09:18 | 51.38656 | 9.72037 | 36147 ft | 391 kts | 0° |
| 2026-05-04 09:18 | 51.41359 | 9.72475 | 35675 ft | 390 kts | 0° |
| 2026-05-04 09:18 | 51.44067 | 9.72914 | 35168 ft | 391 kts | 0° |
| 2026-05-04 09:18 | 51.46760 | 9.73354 | 34651 ft | 391 kts | 0° |
| 2026-05-04 09:19 | 51.49458 | 9.73829 | 34136 ft | 393 kts | 1° |
| 2026-05-04 09:19 | 51.52177 | 9.74333 | 33540 ft | 394 kts | 1° |
| 2026-05-04 09:19 | 51.54892 | 9.74849 | 32995 ft | 393 kts | 1° |
| 2026-05-04 09:19 | 51.57605 | 9.75371 | 32447 ft | 391 kts | 1° |
| 2026-05-04 09:20 | 51.60309 | 9.75890 | 31887 ft | 391 kts | 1° |
| 2026-05-04 09:20 | 51.63005 | 9.76406 | 31315 ft | 390 kts | 1° |
| 2026-05-04 09:20 | 51.65700 | 9.76919 | 30744 ft | 390 kts | 2° |
| 2026-05-04 09:20 | 51.68400 | 9.77431 | 30140 ft | 390 kts | 2° |
| 2026-05-04 09:21 | 51.71095 | 9.77943 | 29464 ft | 390 kts | 2° |
| 2026-05-04 09:21 | 51.73791 | 9.78456 | 28838 ft | 388 kts | 2° |
| 2026-05-04 09:21 | 51.76430 | 9.78959 | 28212 ft | 386 kts | 2° |
| 2026-05-04 09:21 | 51.79130 | 9.79478 | 27564 ft | 385 kts | 2° |
| 2026-05-04 09:22 | 51.81759 | 9.79986 | 26909 ft | 386 kts | 2° |
| 2026-05-04 09:22 | 51.84433 | 9.80475 | 26229 ft | 386 kts | 359° |
| 2026-05-04 09:22 | 51.87096 | 9.80296 | 25532 ft | 380 kts | 345° |
| 2026-05-04 09:22 | 51.89656 | 9.79331 | 24832 ft | 378 kts | 339° |
| 2026-05-04 09:23 | 51.92174 | 9.78106 | 24111 ft | 379 kts | 336° |
| 2026-05-04 09:23 | 51.94672 | 9.76727 | 23367 ft | 379 kts | 334° |
| 2026-05-04 09:23 | 51.97150 | 9.75279 | 22886 ft | 377 kts | 334° |
| 2026-05-04 09:23 | 51.99617 | 9.73817 | 22383 ft | 375 kts | 334° |
| 2026-05-04 09:25 | 52.16346 | 9.64100 | 18991 ft | 356 kts | 335° |
| 2026-05-04 09:25 | 52.18670 | 9.62759 | 18493 ft | 354 kts | 336° |
| 2026-05-04 09:26 | 52.20984 | 9.61423 | 17976 ft | 351 kts | 336° |
| 2026-05-04 09:26 | 52.23252 | 9.60115 | 17480 ft | 348 kts | 336° |
| 2026-05-04 09:26 | 52.25531 | 9.58806 | 16988 ft | 345 kts | 336° |
| 2026-05-04 09:26 | 52.27781 | 9.57517 | 16525 ft | 342 kts | 336° |
| 2026-05-04 09:27 | 52.30014 | 9.56233 | 16052 ft | 339 kts | 336° |
| 2026-05-04 09:27 | 52.32228 | 9.54949 | 15581 ft | 336 kts | 336° |
| 2026-05-04 09:27 | 52.34418 | 9.53672 | 15113 ft | 333 kts | 335° |
| 2026-05-04 09:27 | 52.36591 | 9.52404 | 14653 ft | 330 kts | 335° |
| 2026-05-04 09:28 | 52.38744 | 9.51149 | 14194 ft | 327 kts | 335° |
| 2026-05-04 09:28 | 52.40889 | 9.49903 | 13722 ft | 325 kts | 335° |
| 2026-05-04 09:28 | 52.43006 | 9.48677 | 13216 ft | 321 kts | 335° |
| 2026-05-04 09:28 | 52.45082 | 9.47467 | 12764 ft | 316 kts | 335° |
| 2026-05-04 09:29 | 52.47153 | 9.46254 | 12315 ft | 315 kts | 336° |
| 2026-05-04 09:29 | 52.49211 | 9.45045 | 11873 ft | 314 kts | 336° |
| 2026-05-04 09:29 | 52.51263 | 9.43840 | 11418 ft | 312 kts | 336° |
| 2026-05-04 09:29 | 52.53295 | 9.42648 | 10980 ft | 309 kts | 336° |
| 2026-05-04 09:30 | 52.55317 | 9.41468 | 10555 ft | 307 kts | 337° |
| 2026-05-04 09:30 | 52.57253 | 9.40360 | 10428 ft | 289 kts | 337° |
| 2026-05-04 09:30 | 52.59120 | 9.39282 | 10359 ft | 273 kts | 336° |
| 2026-05-04 09:30 | 52.60874 | 9.38252 | 10198 ft | 267 kts | 336° |
| 2026-05-04 09:31 | 52.62609 | 9.37215 | 9791 ft | 268 kts | 336° |
| 2026-05-04 09:31 | 52.64347 | 9.36169 | 9428 ft | 267 kts | 335° |
| 2026-05-04 09:31 | 52.66092 | 9.35119 | 9078 ft | 267 kts | 335° |
| 2026-05-04 09:31 | 52.67832 | 9.34074 | 8721 ft | 265 kts | 336° |
| 2026-05-04 09:32 | 52.69556 | 9.33039 | 8374 ft | 263 kts | 336° |
| 2026-05-04 09:32 | 52.71272 | 9.32010 | 8041 ft | 261 kts | 336° |
| 2026-05-04 09:34 | 52.82804 | 9.25081 | 6061 ft | 225 kts | 336° |
| 2026-05-04 09:34 | 52.84245 | 9.24214 | 5980 ft | 216 kts | 336° |
| 2026-05-04 09:34 | 52.85659 | 9.23358 | 5702 ft | 217 kts | 336° |
| 2026-05-04 09:34 | 52.87070 | 9.22503 | 5421 ft | 217 kts | 336° |
| 2026-05-04 09:35 | 52.88489 | 9.21643 | 5160 ft | 216 kts | 336° |
| 2026-05-04 09:35 | 52.89911 | 9.20814 | 4904 ft | 219 kts | 337° |
| 2026-05-04 09:35 | 52.91401 | 9.19966 | 4499 ft | 230 kts | 338° |
| 2026-05-04 09:35 | 52.92921 | 9.19111 | 4115 ft | 230 kts | 338° |
| 2026-05-04 09:37 | 53.02423 | 9.13429 | 2760 ft | 186 kts | 325° |
| 2026-05-04 09:37 | 53.03383 | 9.12181 | 2762 ft | 167 kts | 314° |
| 2026-05-04 09:38 | 53.04114 | 9.10782 | 2690 ft | 155 kts | 304° |
| 2026-05-04 09:38 | 53.04646 | 9.09287 | 2596 ft | 145 kts | 294° |
| 2026-05-04 09:38 | 53.05002 | 9.07779 | 2524 ft | 137 kts | 287° |
| 2026-05-04 09:38 | 53.05227 | 9.06237 | 2401 ft | 136 kts | 277° |
| 2026-05-04 09:39 | 53.05280 | 9.04677 | 2267 ft | 133 kts | 270° |
| 2026-05-04 09:39 | 53.05257 | 9.03189 | 2132 ft | 128 kts | 268° |
| 2026-05-04 09:39 | 53.05219 | 9.01734 | 2009 ft | 125 kts | 269° |
| 2026-05-04 09:39 | 53.05185 | 9.00288 | 1917 ft | 125 kts | 268° |
| 2026-05-04 09:40 | 53.05151 | 8.98860 | 1905 ft | 122 kts | 268° |
| 2026-05-04 09:40 | 53.05118 | 8.97429 | 1901 ft | 126 kts | 268° |
| 2026-05-04 09:40 | 53.05085 | 8.95973 | 1864 ft | 126 kts | 269° |
| 2026-05-04 09:40 | 53.05052 | 8.94512 | 1719 ft | 126 kts | 268° |
| 2026-05-04 09:41 | 53.05018 | 8.93053 | 1520 ft | 128 kts | 268° |
| 2026-05-04 09:42 | 53.04772 | 8.82607 | 298 ft | 126 kts | 268° |
| 2026-05-04 09:43 | 53.04740 | 8.81137 | 114 ft | 124 kts | 268° |
| 2026-05-04 09:43 | 53.04709 | 8.79756 | 23 ft | 112 kts | 268° |
| 2026-05-04 09:43 | 53.04695 | 8.78989 | 28 ft | 35 kts | 264° |
| 2026-05-04 09:43 | 53.04712 | 8.78709 | 25 ft | 14 kts | 314° |
| 2026-05-04 09:44 | 53.04777 | 8.78666 | 23 ft | 8 kts | 352° |
| 2026-05-04 09:44 | 53.04830 | 8.78685 | 22 ft | 9 kts | 38° |
| 2026-05-04 09:44 | 53.04854 | 8.78787 | 26 ft | 11 kts | 86° |
| 2026-05-04 09:46 | 53.04882 | 8.80106 | 28 ft | 11 kts | 89° |
| 2026-05-04 09:46 | 53.04914 | 8.80185 | 29 ft | 10 kts | 18° |
| 2026-05-04 09:46 | 53.04990 | 8.80176 | 27 ft | 12 kts | 331° |
| 2026-05-04 09:47 | 53.05012 | 8.80147 | 25 ft | 0 kts | 319° |